Time;durP1;ratioP1;P1;durP2;ratioP2;P2;SDS_P1;SDS_P2;PMS_P1;PMS_P2;Temp;Humidity;BMP_temperature;BMP_pressure;BME280_temperature;BME280_humidity;BME280_pressure;Samples;Min_cycle;Max_cycle;Signal;HPM_P1;HPM_P2
2022/01/25 00:09:49;;;;;;;43.50;24.83;;;5.40;99.90;;;;;;5010410;28;20022;-72
2022/01/25 00:16:14;;;;;;;47.70;24.80;;;5.10;99.90;;;;;;5010533;28;20076;-72
2022/01/25 00:28:53;;;;;;;52.63;25.92;;;5.50;99.90;;;;;;5010003;28;20092;-71
2022/01/25 00:31:18;;;;;;;45.10;24.55;;;5.40;99.90;;;;;;5024710;28;20017;-73
2022/01/25 00:33:48;;;;;;;51.95;26.80;;;5.50;99.90;;;;;;5024461;28;20125;-71
2022/01/25 00:36:19;;;;;;;49.10;25.88;;;5.60;99.90;;;;;;5024476;28;20044;-71
2022/01/25 00:38:45;;;;;;;48.90;25.80;;;5.70;99.90;;;;;;5024438;28;20013;-72
2022/01/25 00:41:11;;;;;;;51.90;28.27;;;5.70;99.90;;;;;;5024416;28;20022;-71
2022/01/25 00:43:36;;;;;;;51.25;27.42;;;5.70;99.90;;;;;;5024078;28;20315;-72
2022/01/25 00:46:07;;;;;;;55.05;29.17;;;5.70;99.90;;;;;;5023846;28;20038;-71
2022/01/25 00:48:45;;;;;;;54.13;28.03;;;5.70;99.90;;;;;;5006758;28;20251;-71
2022/01/25 00:51:22;;;;;;;52.10;28.05;;;5.60;99.90;;;;;;5008418;28;20045;-73
2022/01/25 00:54:03;;;;;;;53.40;28.95;;;5.50;99.90;;;;;;4991307;28;20073;-72
2022/01/25 00:56:33;;;;;;;51.17;27.55;;;5.40;99.90;;;;;;5023945;28;20343;-71
2022/01/25 00:59:03;;;;;;;52.88;27.95;;;5.50;99.90;;;;;;5006641;28;20045;-71
2022/01/25 01:01:30;;;;;;;52.33;28.70;;;5.30;99.90;;;;;;5006841;28;20116;-71
2022/01/25 01:03:56;;;;;;;54.13;27.80;;;5.30;99.90;;;;;;5015933;28;20060;-71
2022/01/25 01:06:22;;;;;;;60.30;29.33;;;5.30;99.90;;;;;;5023970;28;20072;-72
2022/01/25 01:08:48;;;;;;;54.75;28.40;;;5.30;99.90;;;;;;5032653;28;20025;-73
2022/01/25 01:11:20;;;;;;;48.75;27.70;;;5.10;99.90;;;;;;5043500;28;20056;-71
2022/01/25 01:13:58;;;;;;;52.67;28.52;;;5.00;99.90;;;;;;5026600;28;20223;-73
2022/01/25 01:17:01;;;;;;;49.72;27.67;;;4.90;99.90;;;;;;5026028;28;20053;-73
2022/01/25 01:30:32;;;;;;;49.45;27.55;;;5.00;99.90;;;;;;5028829;28;20204;-72
2022/01/25 01:44:03;;;;;;;55.80;29.33;;;5.10;99.90;;;;;;5014874;28;20025;-72
2022/01/25 01:46:43;;;;;;;48.13;26.67;;;5.00;99.90;;;;;;5037752;28;20033;-71
2022/01/25 01:49:11;;;;;;;54.15;28.33;;;5.00;99.90;;;;;;5025620;28;20037;-71
2022/01/25 01:51:41;;;;;;;54.28;28.17;;;5.10;99.90;;;;;;5025321;28;20072;-71
2022/01/25 01:54:10;;;;;;;56.58;28.88;;;5.10;99.90;;;;;;4991915;28;20093;-71
2022/01/25 01:56:38;;;;;;;54.25;28.67;;;5.10;99.90;;;;;;5007080;28;20032;-71
2022/01/25 01:59:09;;;;;;;59.53;29.15;;;5.00;99.90;;;;;;5024968;28;20029;-73
2022/01/25 02:01:36;;;;;;;55.30;28.87;;;5.00;99.90;;;;;;5009845;28;20021;-73
2022/01/25 02:04:04;;;;;;;55.63;29.40;;;5.00;99.90;;;;;;5027545;28;20018;-73
2022/01/25 02:06:30;;;;;;;58.38;29.02;;;5.00;99.90;;;;;;5027205;28;20018;-71
2022/01/25 02:08:55;;;;;;;58.88;30.38;;;5.00;99.90;;;;;;5009899;28;20384;-72
2022/01/25 02:11:22;;;;;;;55.85;29.25;;;5.10;99.90;;;;;;5026952;28;20025;-70
2022/01/25 02:13:48;;;;;;;55.67;28.23;;;5.20;99.90;;;;;;5009280;28;20309;-73
2022/01/25 02:16:34;;;;;;;59.03;30.17;;;5.20;99.90;;;;;;5026933;28;20022;-73
2022/01/25 02:24:33;;;;;;;58.10;29.90;;;5.00;99.90;;;;;;5012023;28;20018;-73
2022/01/25 02:26:59;;;;;;;57.05;30.15;;;5.00;99.90;;;;;;5007750;28;20021;-71
2022/01/25 02:29:25;;;;;;;53.97;27.55;;;5.00;99.90;;;;;;5009289;28;20030;-71
2022/01/25 02:31:52;;;;;;;48.60;27.48;;;5.10;99.90;;;;;;5009278;28;20335;-73
2022/01/25 02:34:18;;;;;;;57.22;30.42;;;5.20;99.90;;;;;;5026886;28;20018;-73
2022/01/25 02:36:44;;;;;;;56.25;29.10;;;5.30;99.90;;;;;;5009204;28;20072;-71
2022/01/25 02:39:09;;;;;;;56.88;30.42;;;5.20;99.90;;;;;;5026299;28;20104;-72
2022/01/25 02:41:36;;;;;;;60.05;30.75;;;5.30;99.90;;;;;;5026682;28;20213;-71
2022/01/25 02:44:04;;;;;;;57.72;29.88;;;5.20;99.90;;;;;;5026264;28;20041;-72
2022/01/25 02:49:17;;;;;;;57.60;29.83;;;5.00;99.90;;;;;;4992607;28;20065;-72
2022/01/25 02:51:46;;;;;;;60.63;31.00;;;5.00;99.90;;;;;;4989272;28;20049;-72
2022/01/25 02:54:14;;;;;;;62.33;30.27;;;5.00;99.90;;;;;;4986003;28;20322;-73
2022/01/25 02:56:43;;;;;;;66.20;31.63;;;5.00;99.90;;;;;;5004249;28;20103;-70
2022/01/25 02:59:09;;;;;;;60.25;30.00;;;5.00;99.90;;;;;;4989104;28;20026;-72
2022/01/25 03:01:36;;;;;;;62.70;30.73;;;4.90;99.90;;;;;;5006660;28;20046;-73
2022/01/25 03:04:03;;;;;;;61.50;30.35;;;4.80;99.90;;;;;;4989165;28;20022;-71
2022/01/25 03:06:29;;;;;;;57.92;29.98;;;4.80;99.90;;;;;;5006585;28;20320;-71
2022/01/25 03:08:55;;;;;;;59.63;31.40;;;4.80;99.90;;;;;;4988976;28;20026;-72
2022/01/25 03:11:23;;;;;;;62.80;31.00;;;4.80;99.90;;;;;;4988602;28;20097;-72
2022/01/25 03:13:54;;;;;;;59.30;29.38;;;4.80;99.90;;;;;;4989054;28;20022;-71
2022/01/25 03:16:38;;;;;;;58.38;29.75;;;4.90;99.90;;;;;;5006541;28;20045;-71
2022/01/25 03:22:04;;;;;;;57.53;30.10;;;4.90;99.90;;;;;;5005228;28;20273;-71
2022/01/25 03:24:30;;;;;;;52.38;29.13;;;4.90;99.90;;;;;;5006234;28;20048;-72
2022/01/25 03:26:56;;;;;;;59.47;30.27;;;4.90;99.90;;;;;;4987660;28;20019;-73
2022/01/25 03:29:21;;;;;;;56.67;30.30;;;4.90;99.90;;;;;;5004737;28;20105;-72
2022/01/25 03:31:47;;;;;;;60.65;30.75;;;4.80;99.90;;;;;;4988665;28;20022;-73
2022/01/25 03:34:13;;;;;;;56.17;28.95;;;4.80;99.90;;;;;;5006177;28;20022;-72
2022/01/25 03:36:39;;;;;;;62.90;30.25;;;4.80;99.90;;;;;;5005713;28;20022;-73
2022/01/25 03:39:06;;;;;;;55.72;29.83;;;4.80;99.90;;;;;;4988397;28;20085;-71
2022/01/25 03:41:33;;;;;;;56.35;29.85;;;4.90;99.90;;;;;;5005802;28;20026;-73
2022/01/25 03:43:59;;;;;;;58.10;29.52;;;5.00;99.90;;;;;;4988594;28;20027;-72
2022/01/25 03:46:56;;;;;;;57.88;30.10;;;5.00;99.90;;;;;;5005760;28;20022;-70
2022/01/25 03:52:00;;;;;;;55.10;28.73;;;5.00;99.90;;;;;;4992969;28;20225;-71
2022/01/25 03:54:26;;;;;;;55.47;29.58;;;4.90;99.90;;;;;;5005421;28;20065;-71
2022/01/25 03:56:52;;;;;;;58.85;30.13;;;4.80;99.90;;;;;;4988593;28;20068;-72
2022/01/25 03:59:18;;;;;;;57.72;29.38;;;4.80;99.90;;;;;;5005459;28;20025;-70
2022/01/25 04:01:43;;;;;;;58.45;29.55;;;4.70;99.90;;;;;;4988304;28;20046;-74
2022/01/25 04:04:13;;;;;;;61.85;30.83;;;4.70;99.90;;;;;;5005503;28;20049;-71
2022/01/25 04:06:43;;;;;;;55.97;28.42;;;4.70;99.90;;;;;;4988690;28;20019;-71
2022/01/25 04:09:09;;;;;;;59.08;29.83;;;4.70;99.90;;;;;;4989504;28;20076;-72
2022/01/25 04:11:36;;;;;;;63.67;30.63;;;4.70;99.90;;;;;;5007087;28;20030;-70
2022/01/25 04:14:03;;;;;;;63.40;30.45;;;4.70;99.90;;;;;;4973144;28;20376;-70
2022/01/25 04:16:34;;;;;;;63.05;30.52;;;4.70;99.90;;;;;;5007118;28;20293;-73
2022/01/25 04:24:41;;;;;;;67.53;29.98;;;4.60;99.90;;;;;;4989663;28;20034;-74
2022/01/25 04:27:11;;;;;;;69.35;31.25;;;4.70;99.90;;;;;;4977276;28;20018;-71
2022/01/25 04:29:37;;;;;;;59.00;29.27;;;4.80;99.90;;;;;;4986019;28;20030;-70
2022/01/25 04:32:06;;;;;;;58.25;29.65;;;4.70;99.90;;;;;;5004814;28;20025;-71
2022/01/25 04:34:40;;;;;;;61.45;30.30;;;4.70;99.90;;;;;;5004934;28;20136;-71
2022/01/25 04:53:50;;;;;;;55.08;27.05;;;4.70;99.90;;;;;;4983922;28;20089;-71
2022/01/25 04:56:25;;;;;;;59.17;29.13;;;4.70;99.90;;;;;;4999729;28;20011;-73
2022/01/25 04:59:00;;;;;;;56.90;29.23;;;4.70;99.90;;;;;;4988647;28;20293;-72
2022/01/25 05:01:26;;;;;;;59.22;28.80;;;4.70;99.90;;;;;;5004268;28;20018;-72
2022/01/25 05:04:12;;;;;;;57.30;29.60;;;4.70;99.90;;;;;;5004594;28;20014;-71
2022/01/25 05:06:38;;;;;;;62.45;31.27;;;4.70;99.90;;;;;;4989998;28;20014;-74
2022/01/25 05:09:08;;;;;;;63.65;31.23;;;4.60;99.90;;;;;;5003835;28;20026;-72
2022/01/25 05:11:38;;;;;;;64.82;31.25;;;4.60;99.90;;;;;;5003964;28;20029;-72
2022/01/25 05:14:23;;;;;;;60.50;29.40;;;4.50;99.90;;;;;;5004132;28;20276;-71
2022/01/25 05:17:00;;;;;;;63.38;29.85;;;4.40;99.90;;;;;;4976391;28;20018;-70
2022/01/25 05:22:03;;;;;;;66.68;30.10;;;4.30;99.90;;;;;;5004114;28;20046;-71
2022/01/25 05:22:27;;;;;;;66.15;31.48;;;4.20;99.90;;;;;;4989666;28;20094;-70
2022/01/25 05:24:53;;;;;;;65.50;30.27;;;4.10;99.90;;;;;;4975231;28;20026;-72
2022/01/25 05:27:20;;;;;;;63.83;29.75;;;4.20;99.90;;;;;;4986932;28;20178;-71
2022/01/25 05:29:46;;;;;;;69.88;32.75;;;4.40;99.90;;;;;;5002089;28;20034;-73
2022/01/25 05:32:12;;;;;;;64.30;30.25;;;4.40;99.90;;;;;;4986942;28;20214;-69
2022/01/25 05:34:39;;;;;;;61.78;30.48;;;4.50;99.90;;;;;;5004805;28;20456;-73
2022/01/25 05:37:06;;;;;;;60.25;29.60;;;4.60;99.90;;;;;;5010480;28;20026;-71
2022/01/25 05:39:33;;;;;;;59.70;29.35;;;4.60;99.90;;;;;;5011359;28;20048;-74
2022/01/25 05:42:18;;;;;;;61.83;29.30;;;4.60;99.90;;;;;;5010915;28;20022;-71
2022/01/25 05:45:00;;;;;;;73.50;32.17;;;4.70;99.90;;;;;;4996535;28;20097;-71
2022/01/25 05:47:30;;;;;;;64.15;31.15;;;4.70;99.90;;;;;;4995851;28;20065;-71
2022/01/25 05:49:57;;;;;;;68.97;31.98;;;4.80;99.90;;;;;;5010913;28;20046;-71
2022/01/25 05:52:24;;;;;;;70.03;31.65;;;4.80;99.90;;;;;;5010660;28;20049;-73
2022/01/25 05:54:50;;;;;;;66.80;31.88;;;4.60;99.90;;;;;;4996438;28;20101;-72
2022/01/25 05:57:16;;;;;;;66.90;32.35;;;4.50;99.90;;;;;;5012823;28;20257;-72
2022/01/25 05:59:42;;;;;;;66.68;30.92;;;4.60;99.90;;;;;;5029953;28;20022;-71
2022/01/25 06:02:08;;;;;;;67.85;30.77;;;4.60;99.90;;;;;;5029972;28;20093;-70
2022/01/25 06:04:34;;;;;;;57.97;27.65;;;4.60;99.90;;;;;;5030153;28;20022;-71
2022/01/25 06:06:59;;;;;;;64.32;30.45;;;4.60;99.90;;;;;;5030150;28;20351;-71
2022/01/25 06:09:25;;;;;;;60.17;28.92;;;4.60;99.90;;;;;;5029890;28;20025;-71
2022/01/25 06:11:53;;;;;;;65.40;30.90;;;4.70;99.90;;;;;;5029632;28;20029;-73
2022/01/25 06:14:19;;;;;;;69.70;31.88;;;4.60;99.90;;;;;;5012168;28;20093;-72
2022/01/25 06:16:45;;;;;;;64.28;29.60;;;4.60;99.90;;;;;;5012750;28;20022;-70
2022/01/25 06:19:11;;;;;;;65.88;31.33;;;4.70;99.90;;;;;;5029602;28;20044;-72
2022/01/25 06:21:36;;;;;;;58.90;28.83;;;4.70;99.90;;;;;;5029801;28;20081;-72
2022/01/25 06:24:02;;;;;;;59.33;29.67;;;4.70;99.90;;;;;;5012012;28;20077;-72
2022/01/25 06:26:28;;;;;;;58.72;29.00;;;4.60;99.90;;;;;;5029864;28;20057;-72
2022/01/25 06:28:53;;;;;;;60.13;29.45;;;4.70;99.90;;;;;;5029829;28;20030;-73
2022/01/25 06:31:19;;;;;;;58.60;28.70;;;4.80;99.90;;;;;;5027852;28;20022;-71
2022/01/25 06:33:46;;;;;;;61.17;28.10;;;4.70;99.90;;;;;;5012364;28;20328;-73
2022/01/25 06:36:12;;;;;;;58.05;29.77;;;4.70;99.90;;;;;;5029687;28;20026;-72
2022/01/25 06:38:38;;;;;;;61.10;29.60;;;4.70;99.90;;;;;;5029648;28;20101;-71
2022/01/25 06:41:04;;;;;;;61.22;30.10;;;4.70;99.90;;;;;;5011928;28;20208;-72
2022/01/25 06:43:30;;;;;;;60.30;28.75;;;4.70;99.90;;;;;;5029303;28;20073;-71
2022/01/25 06:46:01;;;;;;;58.22;28.70;;;4.70;99.90;;;;;;5029003;28;20355;-72
2022/01/25 06:48:27;;;;;;;57.17;29.15;;;4.60;99.90;;;;;;5008735;28;20092;-71
2022/01/25 06:50:53;;;;;;;59.15;28.50;;;4.70;99.90;;;;;;5008745;28;20120;-71
2022/01/25 06:53:19;;;;;;;60.13;29.52;;;4.70;99.90;;;;;;5017335;28;20252;-72
2022/01/25 06:55:45;;;;;;;64.20;30.67;;;4.70;99.90;;;;;;4996693;28;20030;-71
2022/01/25 06:58:11;;;;;;;58.78;29.83;;;4.80;99.90;;;;;;5006670;28;20029;-72
2022/01/25 07:00:38;;;;;;;59.85;28.25;;;4.80;99.90;;;;;;5006625;28;20092;-71
2022/01/25 07:03:04;;;;;;;61.08;29.70;;;4.80;99.90;;;;;;5005066;28;20027;-72
2022/01/25 07:05:31;;;;;;;56.40;27.92;;;4.80;99.90;;;;;;5006769;28;20053;-71
2022/01/25 07:07:57;;;;;;;60.30;27.63;;;4.70;99.90;;;;;;5006210;28;20058;-71
2022/01/25 07:10:23;;;;;;;57.70;26.85;;;4.60;99.90;;;;;;4989197;28;20032;-74
2022/01/25 07:12:49;;;;;;;59.38;27.88;;;4.50;99.90;;;;;;5004877;28;20025;-72
2022/01/25 07:15:14;;;;;;;62.22;28.85;;;4.50;99.90;;;;;;5006573;28;20053;-73
2022/01/25 07:17:41;;;;;;;51.88;26.25;;;4.50;99.90;;;;;;5006095;28;20077;-73
2022/01/25 07:20:08;;;;;;;57.00;27.30;;;4.50;99.90;;;;;;5005199;28;20030;-71
2022/01/25 07:22:34;;;;;;;62.30;28.65;;;4.50;99.90;;;;;;5005032;28;20018;-74
2022/01/25 07:25:00;;;;;;;60.97;28.10;;;4.50;99.90;;;;;;5008845;28;20021;-73
2022/01/25 07:27:26;;;;;;;56.78;27.48;;;4.70;99.90;;;;;;5039919;28;20013;-72
2022/01/25 07:29:52;;;;;;;57.28;28.25;;;4.90;99.90;;;;;;5026039;28;20021;-71
2022/01/25 07:32:18;;;;;;;62.35;28.75;;;4.80;99.90;;;;;;5023829;28;20035;-71
2022/01/25 07:34:43;;;;;;;64.57;29.17;;;4.70;99.90;;;;;;5025541;28;20021;-70
2022/01/25 07:37:09;;;;;;;61.75;29.50;;;4.70;99.90;;;;;;5007793;28;20321;-73
2022/01/25 07:39:35;;;;;;;59.78;28.85;;;4.80;99.90;;;;;;5007653;28;20076;-71
2022/01/25 07:42:00;;;;;;;58.28;28.67;;;4.80;99.90;;;;;;5024654;28;20032;-74
2022/01/25 07:44:30;;;;;;;62.15;27.85;;;4.80;99.90;;;;;;5024729;28;20431;-74
2022/01/25 07:46:57;;;;;;;64.38;28.75;;;4.90;99.90;;;;;;5025296;28;20232;-73
2022/01/25 07:49:25;;;;;;;66.13;31.05;;;4.90;99.90;;;;;;4991098;28;20033;-76
2022/01/25 07:51:51;;;;;;;63.22;28.75;;;4.90;99.90;;;;;;5024217;28;20069;-74
2022/01/25 07:54:18;;;;;;;70.15;30.85;;;5.00;99.90;;;;;;5007748;28;20037;-74
2022/01/25 07:56:44;;;;;;;66.45;28.98;;;5.00;99.90;;;;;;5025054;28;20270;-73
2022/01/25 07:59:09;;;;;;;65.50;30.35;;;5.00;99.90;;;;;;5007190;28;20033;-73
2022/01/25 08:01:35;;;;;;;69.43;29.52;;;5.00;99.90;;;;;;5007390;28;20022;-72
2022/01/25 08:04:01;;;;;;;63.63;29.35;;;5.00;99.90;;;;;;5024932;28;20021;-72
2022/01/25 08:06:27;;;;;;;64.10;29.83;;;4.90;99.90;;;;;;5024359;28;20036;-71
2022/01/25 08:08:53;;;;;;;63.78;29.17;;;4.90;99.90;;;;;;5007095;28;20029;-72
2022/01/25 08:11:19;;;;;;;59.45;27.50;;;5.00;99.90;;;;;;5024639;28;20298;-71
2022/01/25 08:13:49;;;;;;;65.53;29.77;;;5.10;99.90;;;;;;5024052;28;20029;-71
2022/01/25 08:16:16;;;;;;;62.85;29.05;;;5.20;99.90;;;;;;5007507;28;20014;-72
2022/01/25 08:18:43;;;;;;;57.95;27.60;;;5.20;99.90;;;;;;5006975;28;20086;-72
2022/01/25 08:21:09;;;;;;;59.15;27.70;;;5.10;99.90;;;;;;5024158;28;20017;-72
2022/01/25 08:23:34;;;;;;;59.80;28.58;;;5.00;99.90;;;;;;5006802;28;20025;-72
2022/01/25 08:26:00;;;;;;;59.83;27.75;;;5.00;99.90;;;;;;5006855;28;20022;-71
2022/01/25 08:28:26;;;;;;;65.07;28.35;;;4.90;99.90;;;;;;5024242;28;20037;-76
2022/01/25 08:30:52;;;;;;;61.65;27.63;;;5.00;99.90;;;;;;5022463;28;20022;-73
2022/01/25 08:33:18;;;;;;;64.65;28.80;;;4.90;99.90;;;;;;5024148;28;20068;-71
2022/01/25 08:35:46;;;;;;;59.40;27.25;;;5.00;99.90;;;;;;5023192;28;20028;-73
2022/01/25 08:38:11;;;;;;;61.45;29.38;;;5.00;99.90;;;;;;5024107;28;20088;-71
2022/01/25 08:40:37;;;;;;;64.00;29.38;;;5.00;99.90;;;;;;5023678;28;20045;-71
2022/01/25 08:43:03;;;;;;;62.88;29.27;;;5.10;99.90;;;;;;5023860;28;20022;-71
2022/01/25 08:45:29;;;;;;;64.38;29.45;;;5.10;99.90;;;;;;5024110;28;20021;-76
2022/01/25 08:47:55;;;;;;;66.28;29.77;;;5.10;99.90;;;;;;5022809;28;20335;-72
2022/01/25 08:50:21;;;;;;;66.38;30.13;;;5.10;99.90;;;;;;5006190;28;20026;-72
2022/01/25 08:52:46;;;;;;;60.63;27.98;;;5.10;99.90;;;;;;5031895;28;20022;-74
2022/01/25 08:55:12;;;;;;;62.30;28.98;;;5.10;99.90;;;;;;5023968;28;20252;-77
2022/01/25 08:57:38;;;;;;;61.30;28.70;;;5.00;99.90;;;;;;5024208;28;20378;-75
2022/01/25 09:00:07;;;;;;;61.40;28.48;;;4.90;99.90;;;;;;4973669;28;20018;-73
2022/01/25 09:02:33;;;;;;;64.70;28.02;;;4.80;99.90;;;;;;5006327;28;20025;-74
2022/01/25 09:04:59;;;;;;;64.32;28.08;;;4.90;99.90;;;;;;5023342;28;20101;-73
2022/01/25 09:07:25;;;;;;;60.58;26.65;;;4.90;99.90;;;;;;5023004;28;20033;-74
2022/01/25 09:09:50;;;;;;;63.92;29.95;;;5.00;99.90;;;;;;5022477;28;20040;-73
2022/01/25 09:12:16;;;;;;;61.55;28.58;;;4.90;99.90;;;;;;5023234;28;20378;-73
2022/01/25 09:14:42;;;;;;;62.88;28.27;;;4.90;99.90;;;;;;5023436;28;20093;-73
2022/01/25 09:17:10;;;;;;;58.88;27.85;;;4.80;99.90;;;;;;5022647;28;20069;-72
2022/01/25 09:19:38;;;;;;;62.15;27.95;;;4.80;99.90;;;;;;5023739;28;20085;-72
2022/01/25 09:22:05;;;;;;;66.82;28.13;;;4.70;99.90;;;;;;5009218;28;20021;-71
2022/01/25 09:24:31;;;;;;;65.85;28.75;;;4.80;99.90;;;;;;5022054;28;20331;-72
2022/01/25 09:26:57;;;;;;;65.57;29.33;;;4.90;99.90;;;;;;4976274;28;20026;-72
2022/01/25 09:29:23;;;;;;;64.47;26.73;;;4.80;99.90;;;;;;5007500;28;20026;-69
2022/01/25 09:31:48;;;;;;;71.18;28.85;;;4.80;99.90;;;;;;5005084;28;20038;-71
2022/01/25 09:34:15;;;;;;;65.47;28.63;;;4.70;99.90;;;;;;5005767;28;20033;-72
2022/01/25 09:36:41;;;;;;;67.60;28.48;;;4.70;99.90;;;;;;4987051;28;20022;-72
2022/01/25 09:39:07;;;;;;;68.93;28.35;;;4.70;99.90;;;;;;5003701;28;20320;-72
2022/01/25 09:41:33;;;;;;;67.07;29.13;;;4.80;99.90;;;;;;5003643;28;20065;-72
2022/01/25 09:43:59;;;;;;;65.57;29.17;;;4.70;99.90;;;;;;4986086;28;20301;-72
2022/01/25 09:46:24;;;;;;;65.35;28.67;;;4.80;99.90;;;;;;5003704;28;20018;-72
2022/01/25 09:48:51;;;;;;;67.85;28.77;;;4.80;99.90;;;;;;4986346;28;20340;-75
2022/01/25 09:51:19;;;;;;;64.50;29.83;;;4.80;99.90;;;;;;5002880;28;20046;-72
2022/01/25 09:53:48;;;;;;;66.18;28.45;;;4.70;99.90;;;;;;5015647;28;20026;-72
2022/01/25 09:56:14;;;;;;;70.00;30.30;;;4.60;99.90;;;;;;4973027;28;20313;-72
2022/01/25 09:58:40;;;;;;;69.38;29.90;;;4.50;99.90;;;;;;5022946;28;20041;-73
2022/01/25 10:01:07;;;;;;;68.18;29.50;;;4.60;99.90;;;;;;5005290;28;20025;-72
2022/01/25 10:03:39;;;;;;;65.47;29.10;;;4.60;99.90;;;;;;5022587;28;20025;-72
2022/01/25 10:06:14;;;;;;;;;;;4.80;99.90;;;;;;5005955;28;20030;-72
2022/01/25 10:08:41;;;;;;;67.93;29.17;;;4.80;99.90;;;;;;5004865;28;19909;-74
2022/01/25 10:11:09;;;;;;;63.47;28.17;;;4.80;99.90;;;;;;5005234;28;20092;-72
2022/01/25 10:13:38;;;;;;;65.80;29.95;;;4.90;99.90;;;;;;5004999;28;20050;-73
2022/01/25 10:16:10;;;;;;;67.68;29.85;;;4.90;99.90;;;;;;5005206;28;20064;-72
2022/01/25 10:18:42;;;;;;;64.35;28.50;;;5.00;99.90;;;;;;5005207;28;20029;-72
2022/01/25 10:21:31;;;;;;;62.20;28.23;;;5.20;99.90;;;;;;5022435;28;20025;-74
2022/01/25 10:24:29;;;;;;;64.47;29.15;;;5.20;99.90;;;;;;5012291;28;20018;-74
2022/01/25 10:27:00;;;;;;;64.13;28.02;;;5.30;99.90;;;;;;5011456;28;20260;-76
2022/01/25 10:29:30;;;;;;;69.30;30.53;;;5.30;99.90;;;;;;5005687;28;20328;-75
2022/01/25 10:32:10;;;;;;;63.17;28.75;;;5.30;99.90;;;;;;4988651;28;20260;-73
2022/01/25 10:34:41;;;;;;;63.38;27.77;;;5.20;99.90;;;;;;5003828;28;20034;-74
2022/01/25 10:37:09;;;;;;;63.33;27.88;;;5.10;99.90;;;;;;5003741;28;20018;-74
2022/01/25 10:39:38;;;;;;;65.35;29.30;;;5.10;99.90;;;;;;5006659;28;20030;-72
2022/01/25 10:42:23;;;;;;;67.50;29.33;;;5.20;99.90;;;;;;4988310;28;20026;-75
2022/01/25 10:44:55;;;;;;;62.35;27.70;;;5.30;99.90;;;;;;4988999;28;20065;-71
2022/01/25 10:47:49;;;;;;;64.80;28.95;;;5.40;99.90;;;;;;4988231;28;20045;-75
2022/01/25 10:50:18;;;;;;;65.15;28.88;;;5.50;99.90;;;;;;5001888;28;20344;-76
2022/01/25 10:52:46;;;;;;;68.50;30.23;;;5.30;99.90;;;;;;5025532;28;20266;-78
2022/01/25 10:55:13;;;;;;;64.97;29.30;;;5.20;99.90;;;;;;5008034;28;20324;-75
2022/01/25 10:57:39;;;;;;;72.03;29.13;;;5.10;99.90;;;;;;5025543;28;20101;-72
2022/01/25 11:00:09;;;;;;;69.80;30.10;;;5.00;99.90;;;;;;5007651;28;20106;-75
2022/01/25 11:02:47;;;;;;;68.80;28.77;;;4.80;99.90;;;;;;4975282;28;20210;-75
2022/01/25 11:05:13;;;;;;;65.78;28.58;;;4.70;99.90;;;;;;5025186;28;20018;-73
2022/01/25 11:07:44;;;;;;;69.22;29.70;;;4.50;99.90;;;;;;5025044;28;20044;-74
2022/01/25 11:10:19;;;;;;;65.50;27.52;;;4.50;99.90;;;;;;4992730;28;20087;-73
2022/01/25 11:13:01;;;;;;;64.97;27.92;;;4.50;99.90;;;;;;5024425;28;20033;-71
2022/01/25 11:15:26;;;;;;;65.35;28.45;;;4.60;99.90;;;;;;5014087;28;20013;-74
2022/01/25 11:17:52;;;;;;;58.47;24.38;;;4.70;99.90;;;;;;5025323;28;20228;-72
2022/01/25 11:20:18;;;;;;;68.32;26.98;;;4.70;99.90;;;;;;5004905;28;20026;-74
2022/01/25 11:22:45;;;;;;;64.65;27.40;;;4.80;99.90;;;;;;4988906;28;20026;-73
2022/01/25 11:25:17;;;;;;;66.70;28.45;;;4.90;99.90;;;;;;5007716;28;20025;-73
2022/01/25 11:27:43;;;;;;;69.13;27.52;;;5.00;99.90;;;;;;5004998;28;20293;-73
2022/01/25 11:30:13;;;;;;;66.55;29.15;;;4.90;99.90;;;;;;5011334;28;20028;-76
2022/01/25 11:32:45;;;;;;;73.82;28.98;;;4.90;99.90;;;;;;5024271;28;20045;-76
2022/01/25 11:35:14;;;;;;;73.55;30.00;;;4.70;99.90;;;;;;4989616;28;20309;-73
2022/01/25 11:37:42;;;;;;;74.07;27.45;;;4.70;99.90;;;;;;5007080;28;20026;-75
2022/01/25 11:40:30;;;;;;;70.88;28.58;;;4.50;99.90;;;;;;5006719;28;20028;-76
2022/01/25 11:43:03;;;;;;;70.18;27.83;;;4.60;99.90;;;;;;5008082;28;20053;-76
2022/01/25 11:45:32;;;;;;;70.95;27.50;;;4.70;99.90;;;;;;4972619;28;20019;-74
2022/01/25 11:47:58;;;;;;;64.82;26.65;;;4.70;99.90;;;;;;5012536;28;20036;-75
2022/01/25 11:50:30;;;;;;;72.03;27.30;;;4.60;99.90;;;;;;4990042;28;20073;-76
2022/01/25 11:53:05;;;;;;;62.65;25.10;;;4.70;99.90;;;;;;4987359;28;20022;-76
2022/01/25 11:55:36;;;;;;;58.75;24.55;;;4.60;99.90;;;;;;5007905;28;20021;-73
2022/01/25 11:58:08;;;;;;;62.03;25.60;;;4.70;99.90;;;;;;5006429;28;20425;-76
2022/01/25 12:00:56;;;;;;;66.13;26.25;;;4.80;99.90;;;;;;5005508;28;20248;-73
2022/01/25 12:03:31;;;;;;;66.95;26.17;;;5.00;99.90;;;;;;4991991;28;20057;-72
2022/01/25 12:06:07;;;;;;;65.88;27.15;;;5.00;99.90;;;;;;5023283;28;20213;-75
2022/01/25 12:08:40;;;;;;;62.88;26.00;;;4.90;99.90;;;;;;5024175;28;20087;-76
2022/01/25 12:11:43;;;;;;;61.92;26.88;;;4.90;99.90;;;;;;5003635;28;20078;-73
2022/01/25 12:14:32;;;;;;;59.80;24.92;;;4.90;99.90;;;;;;5003339;28;20336;-74
2022/01/25 12:17:12;;;;;;;59.08;24.67;;;4.90;99.90;;;;;;4987347;28;20022;-73
2022/01/25 12:19:47;;;;;;;66.03;26.27;;;4.90;99.90;;;;;;5005678;28;20023;-75
2022/01/25 12:22:36;;;;;;;65.32;27.13;;;5.00;99.90;;;;;;5014470;28;20089;-77
2022/01/25 12:25:27;;;;;;;64.15;26.00;;;5.10;99.90;;;;;;5017883;28;20021;-73
2022/01/25 12:27:58;;;;;;;65.13;26.10;;;5.10;99.90;;;;;;4997386;28;20017;-74
2022/01/25 12:30:39;;;;;;;67.68;27.08;;;5.10;99.90;;;;;;5006306;28;20165;-77
2022/01/25 12:33:26;;;;;;;68.20;26.52;;;5.00;99.90;;;;;;4970873;28;20159;-75
2022/01/25 12:36:07;;;;;;;70.55;27.65;;;5.00;99.90;;;;;;5016608;28;20022;-73
2022/01/25 12:38:51;;;;;;;65.20;26.45;;;5.00;99.90;;;;;;5022202;28;20022;-74
2022/01/25 12:41:20;;;;;;;67.65;26.40;;;5.20;99.90;;;;;;5023941;28;20300;-75
2022/01/25 12:43:51;;;;;;;63.20;26.25;;;5.20;99.90;;;;;;5004972;28;20204;-72
2022/01/25 12:46:21;;;;;;;66.70;26.48;;;5.20;99.90;;;;;;4994947;28;20022;-74
2022/01/25 12:48:50;;;;;;;63.83;26.75;;;5.30;99.90;;;;;;5005576;28;20201;-74
2022/01/25 12:51:20;;;;;;;63.65;27.30;;;5.40;99.90;;;;;;5002346;28;20053;-73
2022/01/25 12:53:49;;;;;;;63.22;26.63;;;5.40;99.90;;;;;;4986597;28;20068;-73
2022/01/25 12:56:19;;;;;;;65.40;27.17;;;5.30;99.90;;;;;;4971879;28;20050;-75
2022/01/25 12:58:50;;;;;;;64.78;26.02;;;5.30;99.90;;;;;;4965988;28;20043;-74
2022/01/25 13:01:19;;;;;;;68.30;27.45;;;5.30;99.90;;;;;;4951631;28;20068;-74
2022/01/25 13:03:55;;;;;;;74.90;28.00;;;5.40;99.90;;;;;;4989511;28;20052;-75
2022/01/25 13:06:24;;;;;;;66.15;26.63;;;5.40;99.90;;;;;;5033751;28;20029;-73
2022/01/25 13:09:00;;;;;;;64.20;25.88;;;5.40;99.90;;;;;;5017594;28;20022;-72
2022/01/25 13:17:12;;;;;;;66.97;25.80;;;5.30;99.90;;;;;;5032526;28;20022;-73
2022/01/25 13:19:46;;;;;;;65.10;26.42;;;5.30;99.90;;;;;;4997286;28;20025;-76
2022/01/25 13:22:19;;;;;;;71.07;28.15;;;5.30;99.90;;;;;;4974929;28;20022;-74
2022/01/25 13:25:12;;;;;;;70.75;26.83;;;5.40;99.90;;;;;;4971333;28;20191;-73
2022/01/25 13:27:47;;;;;;;71.05;25.50;;;5.40;99.90;;;;;;4988714;28;20129;-75
2022/01/25 13:33:01;;;;;;;66.30;25.90;;;5.40;99.90;;;;;;4975205;28;20034;-76
2022/01/25 13:35:32;;;;;;;64.35;25.85;;;5.40;99.90;;;;;;4981531;28;20424;-76
2022/01/25 13:38:19;;;;;;;63.20;25.45;;;5.30;99.90;;;;;;4962379;28;20186;-75
2022/01/25 13:40:58;;;;;;;69.53;26.55;;;5.20;99.90;;;;;;4996596;28;20207;-75
2022/01/25 13:45:42;;;;;;;65.95;26.65;;;5.20;99.90;;;;;;4967403;28;20023;-76
2022/01/25 13:46:18;;;;;;;67.28;25.92;;;5.00;99.90;;;;;;4979064;28;20053;-75
2022/01/25 13:48:46;;;;;;;65.93;25.75;;;5.00;99.90;;;;;;4997273;28;20034;-73
2022/01/25 13:51:15;;;;;;;67.72;26.35;;;5.00;99.90;;;;;;5016191;28;20049;-74
2022/01/25 13:53:41;;;;;;;69.10;26.70;;;5.00;99.90;;;;;;5007028;28;20344;-76
2022/01/25 13:56:12;;;;;;;61.55;25.00;;;5.00;99.90;;;;;;4971684;28;20033;-75
2022/01/25 13:58:41;;;;;;;66.45;26.50;;;5.00;99.90;;;;;;5006679;28;20049;-75
2022/01/25 14:01:10;;;;;;;69.65;26.02;;;5.00;99.90;;;;;;5007326;28;20030;-72
2022/01/25 14:03:43;;;;;;;71.45;27.73;;;5.00;99.90;;;;;;5026907;28;20313;-73
2022/01/25 14:06:27;;;;;;;77.28;29.80;;;5.00;99.90;;;;;;5009173;28;20133;-75
2022/01/25 14:09:01;;;;;;;75.50;30.45;;;5.00;99.90;;;;;;5012702;28;20026;-73
2022/01/25 14:23:21;;;;;;;73.07;29.98;;;5.60;99.90;;;;;;5023366;28;20018;-72
2022/01/25 14:25:34;;;;;;;79.50;30.42;;;5.70;99.90;;;;;;5011530;28;20018;-76
2022/01/25 14:28:03;;;;;;;72.40;29.65;;;5.60;99.90;;;;;;4992691;28;20038;-76
2022/01/25 14:30:33;;;;;;;80.00;28.48;;;5.60;99.90;;;;;;5008527;28;20029;-74
2022/01/25 14:33:03;;;;;;;78.82;28.83;;;5.70;99.90;;;;;;5025689;28;20327;-75